sensor_id;sensor_type;location;lat;lon;timestamp;pressure;altitude;pressure_sealevel;temperature;humidity
59690;BME280;45557;50.298;18.930;2022-12-13T01:39:40;97688.65;;;-3.96;78.82
59690;BME280;45557;50.298;18.930;2022-12-13T01:46:38;97682.31;;;-4.02;79.38
59690;BME280;45557;50.298;18.930;2022-12-13T02:00:12;97679.09;;;-4.04;79.90
59690;BME280;45557;50.298;18.930;2022-12-13T02:06:53;97677.63;;;-3.93;79.34
59690;BME280;45557;50.298;18.930;2022-12-13T02:13:41;97678.58;;;-3.97;79.03
59690;BME280;45557;50.298;18.930;2022-12-13T02:34:44;97692.97;;;-3.81;79.58
59690;BME280;45557;50.298;18.930;2022-12-13T02:41:47;97692.16;;;-3.78;79.79
59690;BME280;45557;50.298;18.930;2022-12-13T03:01:58;97687.21;;;-3.77;79.78
59690;BME280;45557;50.298;18.930;2022-12-13T03:22:47;97696.21;;;-3.69;80.05
59690;BME280;45557;50.298;18.930;2022-12-13T03:29:40;97696.52;;;-3.70;79.86
59690;BME280;45557;50.298;18.930;2022-12-13T03:43:00;97710.80;;;-3.58;79.97
59690;BME280;45557;50.298;18.930;2022-12-13T03:49:49;97707.70;;;-3.63;79.59
59690;BME280;45557;50.298;18.930;2022-12-13T04:50:46;97722.48;;;-3.70;79.47
59690;BME280;45557;50.298;18.930;2022-12-13T05:04:25;97723.60;;;-3.65;78.74
59690;BME280;45557;50.298;18.930;2022-12-13T05:31:19;97728.77;;;-3.64;78.16
59690;BME280;45557;50.298;18.930;2022-12-13T06:13:07;97740.36;;;-3.75;78.17
59690;BME280;45557;50.298;18.930;2022-12-13T06:26:40;97754.43;;;-3.77;78.01
59690;BME280;45557;50.298;18.930;2022-12-13T06:33:50;97757.89;;;-3.85;78.61
59690;BME280;45557;50.298;18.930;2022-12-13T06:41:10;97763.65;;;-3.87;78.77
59690;BME280;45557;50.298;18.930;2022-12-13T06:48:27;97769.91;;;-3.82;78.54
59690;BME280;45557;50.298;18.930;2022-12-13T07:15:52;97797.08;;;-3.82;78.47
59690;BME280;45557;50.298;18.930;2022-12-13T07:22:49;97800.21;;;-3.77;79.11
59690;BME280;45557;50.298;18.930;2022-12-13T07:53:42;97822.91;;;-3.65;78.19
59690;BME280;45557;50.298;18.930;2022-12-13T08:00:27;97834.22;;;-3.59;78.24
59690;BME280;45557;50.298;18.930;2022-12-13T08:06:35;97828.77;;;-3.62;76.87
59690;BME280;45557;50.298;18.930;2022-12-13T08:13:18;97830.24;;;-3.54;76.33
59690;BME280;45557;50.298;18.930;2022-12-13T08:20:06;97837.41;;;-3.45;75.27
59690;BME280;45557;50.298;18.930;2022-12-13T08:26:53;97840.85;;;-3.59;72.95
59690;BME280;45557;50.298;18.930;2022-12-13T08:33:24;97836.70;;;-3.60;73.12
59690;BME280;45557;50.298;18.930;2022-12-13T08:39:31;97836.92;;;-3.54;73.76
59690;BME280;45557;50.298;18.930;2022-12-13T08:46:14;97845.73;;;-3.37;73.26
59690;BME280;45557;50.298;18.930;2022-12-13T08:52:39;97856.92;;;-3.23;72.65
59690;BME280;45557;50.298;18.930;2022-12-13T08:59:10;97857.42;;;-3.13;71.40
59690;BME280;45557;50.298;18.930;2022-12-13T09:05:53;97866.16;;;-3.16;69.85
59690;BME280;45557;50.298;18.930;2022-12-13T09:11:44;97860.29;;;-3.37;70.73
59690;BME280;45557;50.298;18.930;2022-12-13T09:18:11;97856.79;;;-3.43;70.32
59690;BME280;45557;50.298;18.930;2022-12-13T09:24:06;97856.30;;;-3.47;71.50
59690;BME280;45557;50.298;18.930;2022-12-13T09:30:56;97854.48;;;-3.08;72.26
59690;BME280;45557;50.298;18.930;2022-12-13T09:37:58;97854.16;;;-2.69;71.31
59690;BME280;45557;50.298;18.930;2022-12-13T09:44:51;97859.60;;;-2.51;70.46
59690;BME280;45557;50.298;18.930;2022-12-13T09:51:47;97862.61;;;-2.42;70.44
59690;BME280;45557;50.298;18.930;2022-12-13T09:58:27;97862.10;;;-2.31;70.53
59690;BME280;45557;50.298;18.930;2022-12-13T10:05:47;97865.80;;;-2.19;70.24
59690;BME280;45557;50.298;18.930;2022-12-13T10:12:11;97865.48;;;-2.24;68.84
59690;BME280;45557;50.298;18.930;2022-12-13T10:18:53;97862.63;;;-2.24;68.69
59690;BME280;45557;50.298;18.930;2022-12-13T10:25:47;97860.64;;;-2.22;68.02
59690;BME280;45557;50.298;18.930;2022-12-13T10:32:26;97854.41;;;-2.18;68.17
59690;BME280;45557;50.298;18.930;2022-12-13T10:39:14;97853.88;;;-2.16;66.91
59690;BME280;45557;50.298;18.930;2022-12-13T10:45:36;97848.60;;;-2.23;67.08
59690;BME280;45557;50.298;18.930;2022-12-13T10:52:42;97845.59;;;-2.25;66.68
59690;BME280;45557;50.298;18.930;2022-12-13T10:59:35;97843.95;;;-2.03;65.78
59690;BME280;45557;50.298;18.930;2022-12-13T11:06:23;97842.41;;;-1.88;64.72
59690;BME280;45557;50.298;18.930;2022-12-13T11:13:06;97848.35;;;-1.88;64.60
59690;BME280;45557;50.298;18.930;2022-12-13T11:19:55;97841.27;;;-1.88;64.48
59690;BME280;45557;50.298;18.930;2022-12-13T11:26:37;97837.09;;;-2.06;63.64
59690;BME280;45557;50.298;18.930;2022-12-13T11:33:59;97823.24;;;-2.24;64.42
59690;BME280;45557;50.298;18.930;2022-12-13T11:40:21;97830.16;;;-2.30;64.00
59690;BME280;45557;50.298;18.930;2022-12-13T11:47:14;97821.38;;;-2.31;64.12
59690;BME280;45557;50.298;18.930;2022-12-13T11:54:02;97828.39;;;-2.40;64.03
59690;BME280;45557;50.298;18.930;2022-12-13T12:01:10;97832.13;;;-2.42;63.80
59690;BME280;45557;50.298;18.930;2022-12-13T12:08:19;97827.36;;;-2.36;64.89
59690;BME280;45557;50.298;18.930;2022-12-13T12:21:50;97825.79;;;-2.16;64.05
59690;BME280;45557;50.298;18.930;2022-12-13T13:09:42;97827.39;;;-2.32;64.52
59690;BME280;45557;50.298;18.930;2022-12-13T13:16:29;97831.25;;;-2.38;64.59
59690;BME280;45557;50.298;18.930;2022-12-13T13:23:17;97832.92;;;-2.61;64.37
59690;BME280;45557;50.298;18.930;2022-12-13T13:30:06;97834.58;;;-2.76;65.02
59690;BME280;45557;50.298;18.930;2022-12-13T13:36:59;97839.23;;;-2.63;66.05
59690;BME280;45557;50.298;18.930;2022-12-13T13:43:46;97838.68;;;-2.54;65.49
59690;BME280;45557;50.298;18.930;2022-12-13T13:50:50;97835.35;;;-2.72;65.58
59690;BME280;45557;50.298;18.930;2022-12-13T14:18:27;97852.51;;;-3.31;68.06
59690;BME280;45557;50.298;18.930;2022-12-13T14:38:59;97865.47;;;-2.96;67.94
59690;BME280;45557;50.298;18.930;2022-12-13T14:45:44;97868.27;;;-2.93;68.18
59690;BME280;45557;50.298;18.930;2022-12-13T14:52:47;97870.94;;;-2.91;67.77
59690;BME280;45557;50.298;18.930;2022-12-13T14:59:26;97878.84;;;-3.03;67.37
59690;BME280;45557;50.298;18.930;2022-12-13T15:06:09;97885.22;;;-3.21;68.22
59690;BME280;45557;50.298;18.930;2022-12-13T15:12:53;97890.14;;;-3.30;67.93
59690;BME280;45557;50.298;18.930;2022-12-13T15:19:45;97891.49;;;-3.44;68.30
59690;BME280;45557;50.298;18.930;2022-12-13T15:26:26;97895.94;;;-3.54;68.09
59690;BME280;45557;50.298;18.930;2022-12-13T15:33:25;97899.29;;;-3.62;67.74
59690;BME280;45557;50.298;18.930;2022-12-13T15:40:06;97905.72;;;-3.64;68.60
59690;BME280;45557;50.298;18.930;2022-12-13T15:46:46;97905.75;;;-3.70;68.48
59690;BME280;45557;50.298;18.930;2022-12-13T16:00:46;97898.44;;;-3.84;68.73
59690;BME280;45557;50.298;18.930;2022-12-13T16:07:37;97894.02;;;-3.88;69.01
59690;BME280;45557;50.298;18.930;2022-12-13T16:28:31;97896.73;;;-3.69;69.06
59690;BME280;45557;50.298;18.930;2022-12-13T16:35:15;97894.87;;;-3.58;68.88
59690;BME280;45557;50.298;18.930;2022-12-13T16:42:03;97892.29;;;-3.54;68.41
59690;BME280;45557;50.298;18.930;2022-12-13T16:48:47;97901.93;;;-3.56;68.29
59690;BME280;45557;50.298;18.930;2022-12-13T16:55:35;97897.00;;;-3.67;68.05
59690;BME280;45557;50.298;18.930;2022-12-13T17:02:21;97895.02;;;-3.76;68.19
59690;BME280;45557;50.298;18.930;2022-12-13T17:09:05;97908.59;;;-3.84;68.63
59690;BME280;45557;50.298;18.930;2022-12-13T17:15:55;97911.93;;;-3.88;68.82
59690;BME280;45557;50.298;18.930;2022-12-13T17:22:42;97914.27;;;-3.88;68.83
59690;BME280;45557;50.298;18.930;2022-12-13T17:29:35;97917.84;;;-3.80;68.55
59690;BME280;45557;50.298;18.930;2022-12-13T17:36:11;97927.91;;;-3.80;68.23
59690;BME280;45557;50.298;18.930;2022-12-13T17:42:56;97928.27;;;-3.86;68.05
59690;BME280;45557;50.298;18.930;2022-12-13T17:49:41;97937.49;;;-3.94;68.28
59690;BME280;45557;50.298;18.930;2022-12-13T17:56:29;97943.38;;;-4.03;67.92
59690;BME280;45557;50.298;18.930;2022-12-13T18:03:13;97949.81;;;-4.20;68.22
59690;BME280;45557;50.298;18.930;2022-12-13T18:16:24;97941.94;;;-4.48;68.65
59690;BME280;45557;50.298;18.930;2022-12-13T18:23:07;97947.70;;;-4.56;68.85
59690;BME280;45557;50.298;18.930;2022-12-13T18:29:59;97948.81;;;-4.61;69.01
59690;BME280;45557;50.298;18.930;2022-12-13T18:36:42;97951.23;;;-4.57;69.32
59690;BME280;45557;50.298;18.930;2022-12-13T18:43:31;97950.73;;;-4.58;69.29
59690;BME280;45557;50.298;18.930;2022-12-13T18:50:14;97954.19;;;-4.61;69.24
59690;BME280;45557;50.298;18.930;2022-12-13T18:56:58;97949.02;;;-4.68;69.23
59690;BME280;45557;50.298;18.930;2022-12-13T19:03:43;97948.89;;;-4.80;69.65
59690;BME280;45557;50.298;18.930;2022-12-13T19:10:27;97942.79;;;-4.90;69.96
59690;BME280;45557;50.298;18.930;2022-12-13T19:17:12;97935.90;;;-5.08;69.94
59690;BME280;45557;50.298;18.930;2022-12-13T19:23:57;97933.94;;;-5.18;70.24
59690;BME280;45557;50.298;18.930;2022-12-13T19:30:47;97935.35;;;-5.14;70.49
59690;BME280;45557;50.298;18.930;2022-12-13T19:37:28;97936.41;;;-5.16;70.29
59690;BME280;45557;50.298;18.930;2022-12-13T19:44:12;97944.25;;;-5.19;69.94
59690;BME280;45557;50.298;18.930;2022-12-13T19:51:01;97953.55;;;-5.29;69.77
59690;BME280;45557;50.298;18.930;2022-12-13T19:57:41;97958.79;;;-5.42;69.85
59690;BME280;45557;50.298;18.930;2022-12-13T20:04:25;97958.39;;;-5.54;70.33
59690;BME280;45557;50.298;18.930;2022-12-13T20:11:16;97960.20;;;-5.60;70.74
59690;BME280;45557;50.298;18.930;2022-12-13T20:17:59;97955.95;;;-5.55;71.08
59690;BME280;45557;50.298;18.930;2022-12-13T20:24:42;97962.13;;;-5.52;70.89
59690;BME280;45557;50.298;18.930;2022-12-13T20:31:32;97966.75;;;-5.59;70.65
59690;BME280;45557;50.298;18.930;2022-12-13T20:38:13;97967.41;;;-5.70;70.49
59690;BME280;45557;50.298;18.930;2022-12-13T20:44:58;97965.89;;;-5.80;70.97
59690;BME280;45557;50.298;18.930;2022-12-13T20:51:45;97964.70;;;-5.90;70.90
59690;BME280;45557;50.298;18.930;2022-12-13T20:58:31;97961.69;;;-5.95;71.05
59690;BME280;45557;50.298;18.930;2022-12-13T21:05:16;97964.11;;;-5.90;71.09
59690;BME280;45557;50.298;18.930;2022-12-13T21:12:03;97956.95;;;-5.90;71.14
59690;BME280;45557;50.298;18.930;2022-12-13T21:18:48;97952.30;;;-6.03;70.45
59690;BME280;45557;50.298;18.930;2022-12-13T21:25:44;97948.05;;;-6.19;70.81
59690;BME280;45557;50.298;18.930;2022-12-13T21:32:40;97943.99;;;-6.33;71.15
59690;BME280;45557;50.298;18.930;2022-12-13T21:39:26;97942.84;;;-6.65;69.84
59690;BME280;45557;50.298;18.930;2022-12-13T21:46:12;97942.27;;;-7.03;70.71
59690;BME280;45557;50.298;18.930;2022-12-13T21:53:17;97937.21;;;-7.19;71.65
59690;BME280;45557;50.298;18.930;2022-12-13T21:59:58;97943.67;;;-7.02;72.97
59690;BME280;45557;50.298;18.930;2022-12-13T22:06:42;97940.40;;;-6.73;72.61
59690;BME280;45557;50.298;18.930;2022-12-13T22:20:32;97930.30;;;-6.49;71.39
59690;BME280;45557;50.298;18.930;2022-12-13T22:27:27;97927.81;;;-6.66;72.04
59690;BME280;45557;50.298;18.930;2022-12-13T22:34:29;97928.98;;;-6.79;71.17
59690;BME280;45557;50.298;18.930;2022-12-13T22:41:10;97929.42;;;-7.26;69.89
59690;BME280;45557;50.298;18.930;2022-12-13T22:47:53;97928.85;;;-7.83;71.71
59690;BME280;45557;50.298;18.930;2022-12-13T22:54:36;97928.29;;;-7.72;73.19
59690;BME280;45557;50.298;18.930;2022-12-13T23:01:29;97926.23;;;-7.45;72.67
59690;BME280;45557;50.298;18.930;2022-12-13T23:08:09;97921.40;;;-7.11;72.65
59690;BME280;45557;50.298;18.930;2022-12-13T23:14:53;97909.77;;;-6.80;72.33
59690;BME280;45557;50.298;18.930;2022-12-13T23:21:36;97903.02;;;-6.69;72.34
59690;BME280;45557;50.298;18.930;2022-12-13T23:28:19;97898.38;;;-6.63;72.61
59690;BME280;45557;50.298;18.930;2022-12-13T23:35:02;97895.36;;;-6.58;72.24
59690;BME280;45557;50.298;18.930;2022-12-13T23:41:45;97891.92;;;-6.66;71.09
59690;BME280;45557;50.298;18.930;2022-12-13T23:48:30;97882.27;;;-6.76;71.70
59690;BME280;45557;50.298;18.930;2022-12-13T23:55:13;97870.98;;;-6.84;71.97
